createdAt,value
2022-12-04T00:04:01.451Z,75.70
2022-12-04T00:09:04.008Z,75.73
2022-12-04T00:14:07.562Z,75.68
2022-12-04T00:19:09.918Z,75.26
2022-12-04T00:24:12.452Z,75.28
2022-12-04T00:29:14.927Z,75.36
2022-12-04T00:34:17.091Z,75.33
2022-12-04T00:39:19.313Z,75.47
2022-12-04T00:44:21.427Z,75.09
2022-12-04T00:49:23.608Z,75.40
2022-12-04T00:54:25.756Z,75.38
2022-12-04T00:59:28.013Z,75.39
2022-12-04T01:04:30.252Z,75.07
2022-12-04T01:09:33.170Z,75.28
2022-12-04T01:14:35.346Z,75.31
2022-12-04T01:19:37.590Z,74.94
2022-12-04T01:24:39.732Z,74.89
2022-12-04T01:29:42.015Z,74.71
2022-12-04T01:34:44.294Z,74.86
2022-12-04T01:39:46.507Z,74.70
2022-12-04T01:45:33.676Z,74.71
2022-12-04T01:50:36.197Z,74.73
2022-12-04T01:55:38.981Z,74.54
2022-12-04T02:00:41.372Z,74.60
2022-12-04T02:05:43.626Z,74.54
2022-12-04T02:11:09.398Z,74.32
2022-12-04T02:16:51.830Z,74.23
2022-12-04T02:21:55.808Z,74.57
2022-12-04T02:27:25.059Z,74.25
2022-12-04T02:32:36.326Z,74.38
2022-12-04T02:37:41.759Z,74.00
2022-12-04T02:42:48.344Z,74.05
2022-12-04T02:47:51.875Z,73.94
2022-12-04T02:52:58.054Z,73.91
2022-12-04T02:58:05.457Z,73.68
2022-12-04T03:03:12.308Z,73.68
2022-12-04T03:08:19.043Z,73.87
2022-12-04T03:13:41.894Z,73.49
2022-12-04T03:18:50.884Z,73.55
2022-12-04T03:24:03.255Z,73.57
2022-12-04T03:29:13.418Z,73.86
2022-12-04T03:34:39.252Z,73.62
2022-12-04T03:39:50.473Z,73.82
2022-12-04T03:45:09.798Z,73.31
2022-12-04T03:50:25.078Z,73.22
2022-12-04T03:55:31.443Z,73.52
2022-12-04T04:00:37.432Z,73.58
2022-12-04T04:05:43.428Z,73.49
2022-12-04T04:10:45.912Z,73.43
2022-12-04T04:16:11.579Z,73.37
2022-12-04T04:21:33.830Z,73.24
2022-12-04T04:26:39.597Z,73.32
2022-12-04T04:31:59.521Z,73.02
2022-12-04T04:37:20.911Z,72.90
2022-12-04T04:42:26.841Z,73.03
2022-12-04T04:47:45.905Z,73.21
2022-12-04T04:52:51.572Z,73.18
2022-12-04T04:57:53.741Z,73.21
2022-12-04T05:02:55.932Z,73.05
2022-12-04T05:07:58.336Z,72.81
2022-12-04T05:13:00.569Z,73.09
2022-12-04T05:18:02.788Z,73.05
2022-12-04T05:23:04.974Z,72.90
2022-12-04T05:28:07.201Z,73.05
2022-12-04T05:33:10.466Z,72.72
2022-12-04T05:38:12.680Z,72.97
2022-12-04T05:43:14.963Z,72.79
2022-12-04T05:48:17.281Z,72.63
2022-12-04T05:53:19.578Z,72.76
2022-12-04T05:58:21.753Z,72.89
2022-12-04T06:03:24.119Z,72.71
2022-12-04T06:08:26.411Z,72.58
2022-12-04T06:13:28.675Z,72.55
2022-12-04T06:18:30.839Z,72.60
2022-12-04T06:23:32.980Z,72.67
2022-12-04T06:28:35.884Z,72.62
2022-12-04T06:33:38.249Z,72.56
2022-12-04T06:38:41.173Z,72.34
2022-12-04T06:43:43.499Z,72.27
2022-12-04T06:48:45.916Z,71.99
2022-12-04T06:53:48.426Z,72.37
2022-12-04T06:58:52.912Z,72.37
2022-12-04T07:03:56.826Z,72.25
2022-12-04T07:09:07.140Z,71.96
2022-12-04T07:14:10.412Z,72.21
2022-12-04T07:19:14.404Z,72.13
2022-12-04T07:24:17.735Z,72.19
2022-12-04T07:29:20.018Z,72.21
2022-12-04T07:34:22.160Z,71.80
2022-12-04T07:39:24.363Z,72.42
2022-12-04T07:44:26.656Z,71.88
2022-12-04T07:49:29.348Z,70.22
2022-12-04T07:54:31.607Z,69.63
2022-12-04T07:59:33.778Z,69.87
2022-12-04T08:04:37.240Z,69.60
2022-12-04T08:09:39.540Z,69.97
2022-12-04T08:14:41.678Z,70.04
2022-12-04T08:19:43.855Z,69.98
2022-12-04T08:24:46.021Z,70.41
2022-12-04T08:29:48.370Z,70.18
2022-12-04T08:34:55.702Z,70.42
2022-12-04T08:40:01.394Z,70.21
2022-12-04T08:45:06.140Z,70.30
2022-12-04T08:50:08.720Z,70.13
2022-12-04T08:55:10.912Z,70.06
2022-12-04T09:00:13.607Z,70.30
2022-12-04T09:05:15.959Z,70.42
2022-12-04T09:10:18.364Z,69.90
2022-12-04T09:15:20.611Z,69.97
2022-12-04T09:20:22.895Z,70.02
2022-12-04T09:25:25.091Z,69.78
2022-12-04T09:30:31.083Z,69.74
2022-12-04T09:35:34.316Z,69.55
2022-12-04T09:40:44.794Z,69.18
2022-12-04T09:45:51.062Z,69.15
2022-12-04T09:50:53.972Z,68.99
2022-12-04T09:55:59.935Z,68.72
2022-12-04T10:01:04.044Z,68.65
2022-12-04T10:06:16.043Z,68.24
2022-12-04T10:11:32.209Z,68.50
2022-12-04T10:16:41.178Z,67.90
2022-12-04T10:21:59.722Z,67.07
2022-12-04T10:27:09.299Z,67.14
2022-12-04T10:32:19.335Z,66.84
2022-12-04T10:37:22.916Z,67.17
2022-12-04T10:42:41.682Z,67.14
2022-12-04T10:47:46.997Z,67.03
2022-12-04T10:52:49.872Z,66.95
2022-12-04T10:57:52.192Z,66.52
2022-12-04T11:02:56.453Z,66.33
2022-12-04T11:08:00.855Z,66.25
2022-12-04T11:13:14.801Z,66.10
2022-12-04T11:18:28.908Z,65.61
2022-12-04T11:23:41.445Z,65.81
2022-12-04T11:28:53.066Z,65.85
2022-12-04T11:34:04.175Z,65.78
2022-12-04T11:39:28.002Z,65.35
2022-12-04T11:44:34.319Z,65.82
2022-12-04T11:49:42.244Z,66.04
2022-12-04T11:54:51.248Z,65.87
2022-12-04T12:00:03.981Z,65.52
2022-12-04T12:05:17.413Z,65.84
2022-12-04T12:10:25.749Z,65.81
2022-12-04T12:15:41.363Z,65.19
2022-12-04T12:20:54.308Z,65.27
2022-12-04T12:26:10.825Z,64.90
2022-12-04T12:31:38.178Z,65.03
2022-12-04T12:36:44.617Z,65.75
2022-12-04T12:42:00.466Z,65.41
2022-12-04T12:47:20.031Z,65.28
2022-12-04T12:52:43.806Z,65.90
2022-12-04T12:57:50.527Z,65.94
2022-12-04T13:03:29.055Z,65.58
2022-12-04T13:09:04.981Z,65.59
2022-12-04T13:14:07.607Z,66.18
2022-12-04T13:19:36.167Z,65.29
2022-12-04T13:24:56.823Z,66.01
2022-12-04T13:30:24.509Z,65.62
2022-12-04T13:36:17.956Z,65.44
2022-12-04T13:41:26.077Z,65.83
2022-12-04T13:46:38.501Z,65.42
2022-12-04T13:51:46.736Z,66.16
2022-12-04T13:56:51.854Z,66.09
2022-12-04T14:02:04.916Z,65.83
2022-12-04T14:07:33.467Z,65.72
2022-12-04T14:12:39.285Z,66.22
2022-12-04T14:17:44.762Z,66.12
2022-12-04T14:22:48.418Z,66.24
2022-12-04T14:27:53.944Z,66.29
2022-12-04T14:33:22.450Z,65.88
2022-12-04T14:38:25.937Z,66.37
2022-12-04T14:43:33.901Z,66.09
2022-12-04T14:48:38.905Z,66.41
2022-12-04T14:53:57.624Z,65.95
2022-12-04T14:59:06.226Z,66.02
2022-12-04T15:04:46.220Z,65.96
2022-12-04T15:10:12.205Z,66.28
2022-12-04T15:15:25.164Z,66.23
2022-12-04T15:20:33.383Z,66.34
2022-12-04T15:26:07.430Z,65.84
2022-12-04T15:31:19.709Z,66.04
2022-12-04T15:36:47.211Z,65.76
2022-12-04T15:41:50.049Z,66.35
2022-12-04T15:46:58.423Z,66.37
2022-12-04T15:52:17.032Z,66.08
2022-12-04T15:57:40.650Z,66.04
2022-12-04T16:02:43.951Z,66.36
2022-12-04T16:07:58.339Z,66.00
2022-12-04T16:13:03.191Z,66.38
2022-12-04T16:18:06.939Z,66.60
2022-12-04T16:23:09.854Z,66.46
2022-12-04T16:28:13.389Z,66.35
2022-12-04T16:33:16.085Z,66.28
2022-12-04T16:38:18.282Z,66.45
2022-12-04T16:43:20.538Z,66.32
2022-12-04T16:48:22.882Z,66.47
2022-12-04T16:53:25.157Z,66.42
2022-12-04T16:58:27.426Z,66.42
2022-12-04T17:03:37.187Z,66.53
2022-12-04T17:08:39.551Z,66.47
2022-12-04T17:13:42.189Z,66.18
2022-12-04T17:18:45.005Z,66.32
2022-12-04T17:23:47.383Z,66.46
2022-12-04T17:28:50.621Z,66.19
2022-12-04T17:33:53.066Z,66.28
2022-12-04T17:38:56.602Z,66.35
2022-12-04T17:44:00.376Z,66.28
2022-12-04T17:49:07.490Z,66.13
2022-12-04T17:54:13.067Z,66.50
2022-12-04T17:59:15.649Z,66.46
2022-12-04T18:04:19.411Z,66.13
2022-12-04T18:09:23.350Z,66.47
2022-12-04T18:14:25.818Z,66.46
2022-12-04T18:19:29.524Z,66.44
2022-12-04T18:24:31.742Z,66.56
2022-12-04T18:29:33.942Z,66.36
2022-12-04T18:34:36.210Z,66.54
2022-12-04T18:39:38.464Z,66.60
2022-12-04T18:44:42.999Z,66.44
2022-12-04T18:49:45.700Z,66.50
2022-12-04T18:54:47.918Z,66.56
2022-12-04T18:59:52.974Z,66.51
2022-12-04T19:04:55.458Z,66.81
2022-12-04T19:10:13.006Z,66.78
2022-12-04T19:15:15.288Z,66.37
2022-12-04T19:20:18.533Z,66.72
2022-12-04T19:25:20.749Z,67.13
2022-12-04T19:30:22.955Z,66.94
2022-12-04T19:35:25.173Z,67.12
2022-12-04T19:40:27.376Z,66.94
2022-12-04T19:45:29.586Z,67.15
2022-12-04T19:50:32.662Z,66.90
2022-12-04T19:55:36.676Z,67.08
2022-12-04T20:00:38.869Z,67.15
2022-12-04T20:05:41.989Z,67.05
2022-12-04T20:10:44.274Z,67.39
2022-12-04T20:15:46.498Z,67.31
2022-12-04T20:20:56.453Z,67.11
2022-12-04T20:26:05.400Z,66.92
2022-12-04T20:31:16.112Z,67.01
2022-12-04T20:36:20.124Z,67.17
2022-12-04T20:41:22.737Z,67.59
2022-12-04T20:46:31.783Z,67.37
2022-12-04T20:51:37.007Z,67.36
2022-12-04T20:56:39.318Z,67.67
2022-12-04T21:01:41.950Z,67.51
2022-12-04T21:06:44.907Z,67.53
2022-12-04T21:11:52.834Z,67.65
2022-12-04T21:16:55.013Z,67.79
2022-12-04T21:21:57.264Z,67.66
2022-12-04T21:26:59.533Z,67.82
2022-12-04T21:32:02.108Z,67.56
2022-12-04T21:37:04.482Z,67.92
2022-12-04T21:42:25.158Z,67.76
2022-12-04T21:47:28.135Z,67.76
2022-12-04T21:52:30.649Z,67.75
2022-12-04T21:57:32.757Z,67.80
2022-12-04T22:02:36.429Z,67.95
2022-12-04T22:07:38.789Z,67.84
2022-12-04T22:12:49.724Z,68.27
2022-12-04T22:17:53.309Z,68.24
2022-12-04T22:22:55.532Z,68.31
2022-12-04T22:27:58.356Z,68.36
2022-12-04T22:33:00.832Z,68.39
2022-12-04T22:38:03.041Z,68.10
2022-12-04T22:43:05.200Z,68.35
2022-12-04T22:48:07.329Z,68.38
2022-12-04T22:53:09.540Z,68.83
2022-12-04T22:58:11.644Z,68.71
2022-12-04T23:03:15.186Z,68.68
2022-12-04T23:08:17.569Z,68.58
2022-12-04T23:13:19.846Z,68.48
2022-12-04T23:18:22.013Z,68.54
2022-12-04T23:23:24.261Z,68.42
2022-12-04T23:28:26.557Z,68.66
2022-12-04T23:33:29.050Z,68.69
2022-12-04T23:38:31.555Z,68.80
2022-12-04T23:43:34.555Z,68.48
2022-12-04T23:48:40.911Z,69.01
2022-12-04T23:53:43.378Z,68.78
2022-12-04T23:58:46.840Z,68.70
